sensor_id;sensor_type;location;lat;lon;timestamp;P1;durP1;ratioP1;P2;durP2;ratioP2
67185;SDS011;54116;53.518;49.398;2022-12-16T00:01:39;9.13;;;3.50;;
67185;SDS011;54116;53.518;49.398;2022-12-16T00:04:05;8.93;;;2.95;;
67185;SDS011;54116;53.518;49.398;2022-12-16T00:06:32;9.57;;;3.47;;
67185;SDS011;54116;53.518;49.398;2022-12-16T00:08:59;8.95;;;3.13;;
67185;SDS011;54116;53.518;49.398;2022-12-16T00:11:26;12.77;;;3.65;;
67185;SDS011;54116;53.518;49.398;2022-12-16T00:13:52;9.40;;;3.25;;
67185;SDS011;54116;53.518;49.398;2022-12-16T00:16:18;8.63;;;3.33;;
67185;SDS011;54116;53.518;49.398;2022-12-16T00:18:46;6.28;;;2.67;;
67185;SDS011;54116;53.518;49.398;2022-12-16T00:23:38;8.77;;;2.45;;
67185;SDS011;54116;53.518;49.398;2022-12-16T00:26:06;7.00;;;2.67;;
67185;SDS011;54116;53.518;49.398;2022-12-16T00:30:59;6.10;;;2.08;;
67185;SDS011;54116;53.518;49.398;2022-12-16T00:33:25;6.40;;;2.10;;
67185;SDS011;54116;53.518;49.398;2022-12-16T00:35:52;6.45;;;2.17;;
67185;SDS011;54116;53.518;49.398;2022-12-16T00:38:19;8.15;;;2.08;;
67185;SDS011;54116;53.518;49.398;2022-12-16T00:40:46;9.13;;;2.17;;
67185;SDS011;54116;53.518;49.398;2022-12-16T00:43:12;6.30;;;2.38;;
67185;SDS011;54116;53.518;49.398;2022-12-16T00:45:38;7.50;;;1.80;;
67185;SDS011;54116;53.518;49.398;2022-12-16T00:48:04;7.65;;;2.70;;
67185;SDS011;54116;53.518;49.398;2022-12-16T00:50:31;7.60;;;2.22;;
67185;SDS011;54116;53.518;49.398;2022-12-16T00:52:58;5.90;;;2.33;;
67185;SDS011;54116;53.518;49.398;2022-12-16T00:55:24;7.13;;;2.00;;
67185;SDS011;54116;53.518;49.398;2022-12-16T00:57:50;5.15;;;1.83;;
67185;SDS011;54116;53.518;49.398;2022-12-16T01:00:17;6.18;;;1.98;;
67185;SDS011;54116;53.518;49.398;2022-12-16T01:02:45;6.47;;;1.90;;
67185;SDS011;54116;53.518;49.398;2022-12-16T01:05:13;5.53;;;1.60;;
67185;SDS011;54116;53.518;49.398;2022-12-16T01:07:41;7.45;;;1.73;;
67185;SDS011;54116;53.518;49.398;2022-12-16T01:10:08;3.95;;;1.60;;
67185;SDS011;54116;53.518;49.398;2022-12-16T01:12:35;6.20;;;1.63;;
67185;SDS011;54116;53.518;49.398;2022-12-16T01:15:03;6.05;;;1.60;;
67185;SDS011;54116;53.518;49.398;2022-12-16T01:17:30;2.70;;;0.95;;
67185;SDS011;54116;53.518;49.398;2022-12-16T01:19:59;5.47;;;1.42;;
67185;SDS011;54116;53.518;49.398;2022-12-16T01:22:28;6.32;;;1.85;;
67185;SDS011;54116;53.518;49.398;2022-12-16T01:24:55;5.00;;;1.50;;
67185;SDS011;54116;53.518;49.398;2022-12-16T01:27:21;9.73;;;2.65;;
67185;SDS011;54116;53.518;49.398;2022-12-16T01:29:47;5.88;;;1.55;;
67185;SDS011;54116;53.518;49.398;2022-12-16T01:32:14;7.25;;;1.90;;
67185;SDS011;54116;53.518;49.398;2022-12-16T01:34:41;8.65;;;1.88;;
67185;SDS011;54116;53.518;49.398;2022-12-16T01:37:11;6.55;;;1.77;;
67185;SDS011;54116;53.518;49.398;2022-12-16T01:39:37;6.20;;;1.67;;
67185;SDS011;54116;53.518;49.398;2022-12-16T01:42:08;6.07;;;1.95;;
67185;SDS011;54116;53.518;49.398;2022-12-16T01:44:43;7.65;;;1.92;;
67185;SDS011;54116;53.518;49.398;2022-12-16T01:47:15;5.35;;;1.95;;
67185;SDS011;54116;53.518;49.398;2022-12-16T01:49:45;7.78;;;2.15;;
67185;SDS011;54116;53.518;49.398;2022-12-16T01:52:35;13.27;;;2.75;;
67185;SDS011;54116;53.518;49.398;2022-12-16T01:55:06;9.88;;;2.83;;
67185;SDS011;54116;53.518;49.398;2022-12-16T01:57:49;7.80;;;2.35;;
67185;SDS011;54116;53.518;49.398;2022-12-16T02:00:19;7.13;;;2.17;;
67185;SDS011;54116;53.518;49.398;2022-12-16T02:02:45;7.22;;;1.77;;
67185;SDS011;54116;53.518;49.398;2022-12-16T02:05:15;4.60;;;1.85;;
67185;SDS011;54116;53.518;49.398;2022-12-16T02:07:59;6.97;;;1.60;;
67185;SDS011;54116;53.518;49.398;2022-12-16T02:18:54;5.68;;;2.60;;
67185;SDS011;54116;53.518;49.398;2022-12-16T02:21:51;5.88;;;1.90;;
67185;SDS011;54116;53.518;49.398;2022-12-16T02:35:31;6.57;;;1.35;;
67185;SDS011;54116;53.518;49.398;2022-12-16T02:41:03;6.93;;;1.77;;
67185;SDS011;54116;53.518;49.398;2022-12-16T02:46:22;8.18;;;1.80;;
67185;SDS011;54116;53.518;49.398;2022-12-16T02:48:52;6.85;;;1.63;;
67185;SDS011;54116;53.518;49.398;2022-12-16T02:51:18;6.13;;;1.58;;
67185;SDS011;54116;53.518;49.398;2022-12-16T02:53:45;5.63;;;1.83;;
67185;SDS011;54116;53.518;49.398;2022-12-16T02:59:16;6.60;;;1.80;;
67185;SDS011;54116;53.518;49.398;2022-12-16T03:02:01;5.57;;;1.50;;
67185;SDS011;54116;53.518;49.398;2022-12-16T03:04:33;7.07;;;2.10;;
67185;SDS011;54116;53.518;49.398;2022-12-16T03:07:05;5.05;;;1.30;;
67185;SDS011;54116;53.518;49.398;2022-12-16T03:09:35;7.15;;;1.88;;
67185;SDS011;54116;53.518;49.398;2022-12-16T03:12:05;6.72;;;1.50;;
67185;SDS011;54116;53.518;49.398;2022-12-16T03:14:35;5.82;;;1.70;;
67185;SDS011;54116;53.518;49.398;2022-12-16T03:17:05;3.85;;;1.30;;
67185;SDS011;54116;53.518;49.398;2022-12-16T03:19:33;6.85;;;1.75;;
67185;SDS011;54116;53.518;49.398;2022-12-16T03:22:08;7.00;;;1.70;;
67185;SDS011;54116;53.518;49.398;2022-12-16T03:24:36;5.80;;;1.30;;
67185;SDS011;54116;53.518;49.398;2022-12-16T03:27:11;5.40;;;1.27;;
67185;SDS011;54116;53.518;49.398;2022-12-16T03:29:43;3.88;;;1.42;;
67185;SDS011;54116;53.518;49.398;2022-12-16T03:32:47;5.22;;;1.38;;
67185;SDS011;54116;53.518;49.398;2022-12-16T03:35:21;4.18;;;1.52;;
67185;SDS011;54116;53.518;49.398;2022-12-16T03:38:03;4.93;;;1.52;;
67185;SDS011;54116;53.518;49.398;2022-12-16T03:40:30;5.88;;;1.52;;
67185;SDS011;54116;53.518;49.398;2022-12-16T03:42:58;7.25;;;1.80;;
67185;SDS011;54116;53.518;49.398;2022-12-16T03:45:27;5.07;;;1.58;;
67185;SDS011;54116;53.518;49.398;2022-12-16T03:47:57;6.80;;;1.88;;
67185;SDS011;54116;53.518;49.398;2022-12-16T03:50:25;5.57;;;1.45;;
67185;SDS011;54116;53.518;49.398;2022-12-16T03:52:57;4.65;;;2.13;;
67185;SDS011;54116;53.518;49.398;2022-12-16T03:55:23;6.68;;;1.67;;
67185;SDS011;54116;53.518;49.398;2022-12-16T03:57:49;6.63;;;1.77;;
67185;SDS011;54116;53.518;49.398;2022-12-16T04:00:16;6.43;;;1.63;;
67185;SDS011;54116;53.518;49.398;2022-12-16T04:02:42;5.95;;;1.92;;
67185;SDS011;54116;53.518;49.398;2022-12-16T04:05:09;7.65;;;1.67;;
67185;SDS011;54116;53.518;49.398;2022-12-16T04:10:01;7.55;;;2.60;;
67185;SDS011;54116;53.518;49.398;2022-12-16T04:12:28;4.65;;;1.95;;
67185;SDS011;54116;53.518;49.398;2022-12-16T04:15:13;10.50;;;2.33;;
67185;SDS011;54116;53.518;49.398;2022-12-16T04:17:57;9.82;;;2.70;;
67185;SDS011;54116;53.518;49.398;2022-12-16T04:20:42;10.73;;;2.67;;
67185;SDS011;54116;53.518;49.398;2022-12-16T04:23:30;11.52;;;2.78;;
67185;SDS011;54116;53.518;49.398;2022-12-16T04:26:16;8.02;;;2.70;;
67185;SDS011;54116;53.518;49.398;2022-12-16T04:28:42;8.15;;;2.75;;
67185;SDS011;54116;53.518;49.398;2022-12-16T04:31:08;11.73;;;3.28;;
67185;SDS011;54116;53.518;49.398;2022-12-16T04:33:34;9.82;;;2.40;;
67185;SDS011;54116;53.518;49.398;2022-12-16T04:36:19;12.70;;;2.90;;
67185;SDS011;54116;53.518;49.398;2022-12-16T04:39:03;8.88;;;2.30;;
67185;SDS011;54116;53.518;49.398;2022-12-16T04:41:52;12.95;;;3.05;;
67185;SDS011;54116;53.518;49.398;2022-12-16T04:44:37;11.50;;;4.15;;
67185;SDS011;54116;53.518;49.398;2022-12-16T04:47:21;12.63;;;3.25;;
67185;SDS011;54116;53.518;49.398;2022-12-16T04:50:06;13.20;;;2.05;;
67185;SDS011;54116;53.518;49.398;2022-12-16T04:52:51;10.40;;;2.90;;
67185;SDS011;54116;53.518;49.398;2022-12-16T04:55:37;9.30;;;2.85;;
67185;SDS011;54116;53.518;49.398;2022-12-16T04:58:21;8.60;;;2.22;;
67185;SDS011;54116;53.518;49.398;2022-12-16T05:01:06;8.43;;;2.53;;
67185;SDS011;54116;53.518;49.398;2022-12-16T05:03:51;11.48;;;3.30;;
67185;SDS011;54116;53.518;49.398;2022-12-16T05:06:35;16.35;;;3.05;;
67185;SDS011;54116;53.518;49.398;2022-12-16T05:09:19;11.35;;;2.60;;
67185;SDS011;54116;53.518;49.398;2022-12-16T05:12:04;8.77;;;2.88;;
67185;SDS011;54116;53.518;49.398;2022-12-16T05:14:48;9.82;;;2.58;;
67185;SDS011;54116;53.518;49.398;2022-12-16T05:17:32;15.50;;;3.60;;
67185;SDS011;54116;53.518;49.398;2022-12-16T05:20:18;9.85;;;2.65;;
67185;SDS011;54116;53.518;49.398;2022-12-16T05:23:02;8.50;;;2.45;;
67185;SDS011;54116;53.518;49.398;2022-12-16T05:25:46;11.75;;;2.75;;
67185;SDS011;54116;53.518;49.398;2022-12-16T05:28:31;9.27;;;2.72;;
67185;SDS011;54116;53.518;49.398;2022-12-16T05:31:15;11.13;;;2.85;;
67185;SDS011;54116;53.518;49.398;2022-12-16T05:33:59;9.10;;;2.20;;
67185;SDS011;54116;53.518;49.398;2022-12-16T05:36:44;12.38;;;3.30;;
67185;SDS011;54116;53.518;49.398;2022-12-16T05:39:28;9.23;;;2.67;;
67185;SDS011;54116;53.518;49.398;2022-12-16T05:42:12;7.75;;;2.15;;
67185;SDS011;54116;53.518;49.398;2022-12-16T05:44:57;11.85;;;2.65;;
67185;SDS011;54116;53.518;49.398;2022-12-16T05:47:41;9.85;;;2.25;;
67185;SDS011;54116;53.518;49.398;2022-12-16T05:50:25;12.02;;;2.40;;
67185;SDS011;54116;53.518;49.398;2022-12-16T05:53:23;8.10;;;2.60;;
67185;SDS011;54116;53.518;49.398;2022-12-16T05:56:08;10.10;;;2.42;;
67185;SDS011;54116;53.518;49.398;2022-12-16T05:58:52;4.55;;;1.80;;
67185;SDS011;54116;53.518;49.398;2022-12-16T06:01:37;10.35;;;2.25;;
67185;SDS011;54116;53.518;49.398;2022-12-16T06:04:21;9.02;;;2.75;;
67185;SDS011;54116;53.518;49.398;2022-12-16T06:07:05;10.73;;;2.13;;
67185;SDS011;54116;53.518;49.398;2022-12-16T06:09:50;8.45;;;1.98;;
67185;SDS011;54116;53.518;49.398;2022-12-16T06:12:34;8.70;;;2.53;;
67185;SDS011;54116;53.518;49.398;2022-12-16T06:15:18;9.15;;;2.00;;
67185;SDS011;54116;53.518;49.398;2022-12-16T06:18:03;10.57;;;2.50;;
67185;SDS011;54116;53.518;49.398;2022-12-16T06:20:48;10.50;;;2.63;;
67185;SDS011;54116;53.518;49.398;2022-12-16T06:23:32;7.00;;;1.75;;
67185;SDS011;54116;53.518;49.398;2022-12-16T06:26:16;7.57;;;2.15;;
67185;SDS011;54116;53.518;49.398;2022-12-16T06:29:01;5.90;;;1.77;;
67185;SDS011;54116;53.518;49.398;2022-12-16T06:31:45;9.30;;;2.28;;
67185;SDS011;54116;53.518;49.398;2022-12-16T06:34:30;11.07;;;2.40;;
67185;SDS011;54116;53.518;49.398;2022-12-16T06:37:14;7.05;;;2.20;;
67185;SDS011;54116;53.518;49.398;2022-12-16T06:39:59;14.07;;;2.28;;
67185;SDS011;54116;53.518;49.398;2022-12-16T06:42:43;9.40;;;2.53;;
67185;SDS011;54116;53.518;49.398;2022-12-16T06:45:27;17.58;;;2.97;;
67185;SDS011;54116;53.518;49.398;2022-12-16T06:48:12;12.32;;;2.85;;
67185;SDS011;54116;53.518;49.398;2022-12-16T06:50:56;11.10;;;2.92;;
67185;SDS011;54116;53.518;49.398;2022-12-16T06:53:41;11.48;;;2.67;;
67185;SDS011;54116;53.518;49.398;2022-12-16T06:56:27;9.38;;;2.20;;
67185;SDS011;54116;53.518;49.398;2022-12-16T06:59:12;9.60;;;2.35;;
67185;SDS011;54116;53.518;49.398;2022-12-16T07:01:56;10.63;;;2.15;;
67185;SDS011;54116;53.518;49.398;2022-12-16T07:04:41;11.05;;;2.67;;
67185;SDS011;54116;53.518;49.398;2022-12-16T07:07:25;8.10;;;2.35;;
67185;SDS011;54116;53.518;49.398;2022-12-16T07:10:09;8.15;;;2.33;;
67185;SDS011;54116;53.518;49.398;2022-12-16T07:13:00;8.48;;;2.38;;
67185;SDS011;54116;53.518;49.398;2022-12-16T07:15:45;6.75;;;2.10;;
67185;SDS011;54116;53.518;49.398;2022-12-16T07:18:30;12.32;;;2.63;;
67185;SDS011;54116;53.518;49.398;2022-12-16T07:21:16;7.22;;;1.98;;
67185;SDS011;54116;53.518;49.398;2022-12-16T07:24:00;9.07;;;2.30;;
67185;SDS011;54116;53.518;49.398;2022-12-16T07:26:45;8.82;;;2.53;;
67185;SDS011;54116;53.518;49.398;2022-12-16T07:29:30;7.47;;;2.10;;
67185;SDS011;54116;53.518;49.398;2022-12-16T07:32:14;10.95;;;2.13;;
67185;SDS011;54116;53.518;49.398;2022-12-16T07:34:58;9.27;;;2.33;;
67185;SDS011;54116;53.518;49.398;2022-12-16T07:37:43;6.47;;;1.80;;
67185;SDS011;54116;53.518;49.398;2022-12-16T07:40:27;6.30;;;2.42;;
67185;SDS011;54116;53.518;49.398;2022-12-16T07:43:11;9.40;;;2.17;;
67185;SDS011;54116;53.518;49.398;2022-12-16T07:45:56;9.32;;;1.83;;
67185;SDS011;54116;53.518;49.398;2022-12-16T07:48:41;7.57;;;1.98;;
67185;SDS011;54116;53.518;49.398;2022-12-16T07:51:25;8.93;;;2.35;;
67185;SDS011;54116;53.518;49.398;2022-12-16T07:54:10;6.18;;;2.10;;
67185;SDS011;54116;53.518;49.398;2022-12-16T07:56:54;6.97;;;2.42;;
67185;SDS011;54116;53.518;49.398;2022-12-16T07:59:39;7.93;;;2.40;;
67185;SDS011;54116;53.518;49.398;2022-12-16T08:02:23;8.70;;;2.45;;
67185;SDS011;54116;53.518;49.398;2022-12-16T08:05:07;14.00;;;2.75;;
67185;SDS011;54116;53.518;49.398;2022-12-16T08:07:52;5.70;;;1.67;;
67185;SDS011;54116;53.518;49.398;2022-12-16T08:10:36;10.57;;;2.53;;
67185;SDS011;54116;53.518;49.398;2022-12-16T08:13:20;6.63;;;2.20;;
67185;SDS011;54116;53.518;49.398;2022-12-16T08:16:04;10.30;;;2.28;;
67185;SDS011;54116;53.518;49.398;2022-12-16T08:18:49;7.00;;;1.90;;
67185;SDS011;54116;53.518;49.398;2022-12-16T08:21:33;9.98;;;2.25;;
67185;SDS011;54116;53.518;49.398;2022-12-16T08:24:18;7.32;;;2.13;;
67185;SDS011;54116;53.518;49.398;2022-12-16T08:27:02;9.60;;;2.75;;
67185;SDS011;54116;53.518;49.398;2022-12-16T08:29:47;9.90;;;2.10;;
67185;SDS011;54116;53.518;49.398;2022-12-16T08:32:31;8.73;;;2.30;;
67185;SDS011;54116;53.518;49.398;2022-12-16T08:35:15;9.35;;;2.85;;
67185;SDS011;54116;53.518;49.398;2022-12-16T08:38:00;11.55;;;2.63;;
67185;SDS011;54116;53.518;49.398;2022-12-16T08:40:44;7.80;;;2.30;;
67185;SDS011;54116;53.518;49.398;2022-12-16T08:43:30;9.35;;;2.83;;
67185;SDS011;54116;53.518;49.398;2022-12-16T08:46:15;9.13;;;2.65;;
67185;SDS011;54116;53.518;49.398;2022-12-16T08:49:00;7.40;;;2.60;;
67185;SDS011;54116;53.518;49.398;2022-12-16T08:51:44;9.15;;;2.25;;
67185;SDS011;54116;53.518;49.398;2022-12-16T08:54:28;9.00;;;2.47;;
67185;SDS011;54116;53.518;49.398;2022-12-16T08:57:13;8.80;;;3.00;;
67185;SDS011;54116;53.518;49.398;2022-12-16T08:59:57;11.52;;;2.40;;
67185;SDS011;54116;53.518;49.398;2022-12-16T09:02:41;8.95;;;2.38;;
67185;SDS011;54116;53.518;49.398;2022-12-16T09:05:25;13.02;;;2.88;;
67185;SDS011;54116;53.518;49.398;2022-12-16T09:08:10;8.50;;;2.50;;
67185;SDS011;54116;53.518;49.398;2022-12-16T09:10:54;7.13;;;2.38;;
67185;SDS011;54116;53.518;49.398;2022-12-16T09:13:43;8.77;;;2.38;;
67185;SDS011;54116;53.518;49.398;2022-12-16T09:16:28;5.72;;;2.00;;
67185;SDS011;54116;53.518;49.398;2022-12-16T09:19:12;12.10;;;2.65;;
67185;SDS011;54116;53.518;49.398;2022-12-16T09:21:57;10.40;;;2.65;;
67185;SDS011;54116;53.518;49.398;2022-12-16T09:24:41;7.68;;;2.50;;
67185;SDS011;54116;53.518;49.398;2022-12-16T09:27:25;10.65;;;3.20;;
67185;SDS011;54116;53.518;49.398;2022-12-16T09:30:09;7.10;;;2.22;;
67185;SDS011;54116;53.518;49.398;2022-12-16T09:32:54;8.38;;;2.63;;
67185;SDS011;54116;53.518;49.398;2022-12-16T09:35:39;9.95;;;3.00;;
67185;SDS011;54116;53.518;49.398;2022-12-16T09:38:23;11.80;;;3.40;;
67185;SDS011;54116;53.518;49.398;2022-12-16T09:41:41;9.60;;;2.58;;
67185;SDS011;54116;53.518;49.398;2022-12-16T09:44:24;8.10;;;2.30;;
67185;SDS011;54116;53.518;49.398;2022-12-16T09:50:23;9.32;;;2.83;;
67185;SDS011;54116;53.518;49.398;2022-12-16T09:53:14;8.60;;;2.38;;
67185;SDS011;54116;53.518;49.398;2022-12-16T09:56:02;11.30;;;2.60;;
67185;SDS011;54116;53.518;49.398;2022-12-16T09:58:52;9.27;;;2.67;;
67185;SDS011;54116;53.518;49.398;2022-12-16T10:01:43;7.22;;;2.33;;
67185;SDS011;54116;53.518;49.398;2022-12-16T10:04:28;10.27;;;2.60;;
67185;SDS011;54116;53.518;49.398;2022-12-16T10:07:17;8.15;;;3.00;;
67185;SDS011;54116;53.518;49.398;2022-12-16T10:16:28;7.97;;;2.17;;
67185;SDS011;54116;53.518;49.398;2022-12-16T10:23:03;10.23;;;2.63;;
67185;SDS011;54116;53.518;49.398;2022-12-16T10:26:35;17.05;;;3.50;;
67185;SDS011;54116;53.518;49.398;2022-12-16T10:29:12;7.88;;;2.50;;
67185;SDS011;54116;53.518;49.398;2022-12-16T10:32:14;12.48;;;3.25;;
67185;SDS011;54116;53.518;49.398;2022-12-16T10:35:13;7.32;;;2.42;;
67185;SDS011;54116;53.518;49.398;2022-12-16T10:38:21;7.93;;;2.55;;
67185;SDS011;54116;53.518;49.398;2022-12-16T10:41:20;9.50;;;2.85;;
67185;SDS011;54116;53.518;49.398;2022-12-16T10:44:10;9.95;;;2.50;;
67185;SDS011;54116;53.518;49.398;2022-12-16T10:47:34;8.32;;;2.88;;
67185;SDS011;54116;53.518;49.398;2022-12-16T10:50:18;9.70;;;2.97;;
67185;SDS011;54116;53.518;49.398;2022-12-16T10:53:17;10.00;;;2.67;;
67185;SDS011;54116;53.518;49.398;2022-12-16T10:59:13;9.23;;;3.38;;
67185;SDS011;54116;53.518;49.398;2022-12-16T11:02:03;14.23;;;3.42;;
67185;SDS011;54116;53.518;49.398;2022-12-16T11:04:59;8.48;;;2.22;;
67185;SDS011;54116;53.518;49.398;2022-12-16T11:10:35;8.98;;;3.38;;
67185;SDS011;54116;53.518;49.398;2022-12-16T11:13:31;11.98;;;2.58;;
67185;SDS011;54116;53.518;49.398;2022-12-16T11:22:22;9.13;;;2.35;;
67185;SDS011;54116;53.518;49.398;2022-12-16T11:25:17;7.70;;;2.60;;
67185;SDS011;54116;53.518;49.398;2022-12-16T11:28:11;9.27;;;2.65;;
67185;SDS011;54116;53.518;49.398;2022-12-16T11:30:56;11.43;;;3.22;;
67185;SDS011;54116;53.518;49.398;2022-12-16T11:33:51;11.93;;;3.70;;
67185;SDS011;54116;53.518;49.398;2022-12-16T11:36:45;12.85;;;3.03;;
67185;SDS011;54116;53.518;49.398;2022-12-16T11:39:32;10.27;;;2.92;;
67185;SDS011;54116;53.518;49.398;2022-12-16T11:42:20;9.15;;;3.33;;
67185;SDS011;54116;53.518;49.398;2022-12-16T11:45:12;11.40;;;3.67;;
67185;SDS011;54116;53.518;49.398;2022-12-16T11:48:01;8.27;;;3.08;;
67185;SDS011;54116;53.518;49.398;2022-12-16T11:51:08;12.88;;;3.17;;
67185;SDS011;54116;53.518;49.398;2022-12-16T11:54:07;9.75;;;2.95;;
67185;SDS011;54116;53.518;49.398;2022-12-16T12:00:37;8.60;;;2.45;;
67185;SDS011;54116;53.518;49.398;2022-12-16T12:03:31;9.55;;;2.88;;
67185;SDS011;54116;53.518;49.398;2022-12-16T12:06:28;10.10;;;2.70;;
67185;SDS011;54116;53.518;49.398;2022-12-16T12:09:19;10.32;;;2.80;;
67185;SDS011;54116;53.518;49.398;2022-12-16T12:15:24;8.93;;;2.47;;
67185;SDS011;54116;53.518;49.398;2022-12-16T12:24:09;10.57;;;2.75;;
67185;SDS011;54116;53.518;49.398;2022-12-16T12:29:55;9.23;;;2.92;;
67185;SDS011;54116;53.518;49.398;2022-12-16T12:32:51;11.45;;;3.05;;
67185;SDS011;54116;53.518;49.398;2022-12-16T12:48:07;11.48;;;2.63;;
67185;SDS011;54116;53.518;49.398;2022-12-16T12:54:07;8.85;;;2.85;;
67185;SDS011;54116;53.518;49.398;2022-12-16T13:03:03;12.68;;;2.88;;
67185;SDS011;54116;53.518;49.398;2022-12-16T13:06:05;8.60;;;3.05;;
67185;SDS011;54116;53.518;49.398;2022-12-16T13:11:35;8.77;;;2.90;;
67185;SDS011;54116;53.518;49.398;2022-12-16T13:17:14;12.55;;;2.72;;
67185;SDS011;54116;53.518;49.398;2022-12-16T13:19:59;11.40;;;2.92;;
67185;SDS011;54116;53.518;49.398;2022-12-16T13:22:45;13.80;;;3.60;;
67185;SDS011;54116;53.518;49.398;2022-12-16T13:28:28;11.10;;;3.20;;
67185;SDS011;54116;53.518;49.398;2022-12-16T13:31:14;11.75;;;3.05;;
67185;SDS011;54116;53.518;49.398;2022-12-16T13:34:02;10.23;;;2.60;;
67185;SDS011;54116;53.518;49.398;2022-12-16T13:36:59;12.25;;;2.72;;
67185;SDS011;54116;53.518;49.398;2022-12-16T13:40:05;11.90;;;3.10;;
67185;SDS011;54116;53.518;49.398;2022-12-16T13:42:57;11.82;;;3.95;;
67185;SDS011;54116;53.518;49.398;2022-12-16T13:45:42;12.60;;;4.13;;
67185;SDS011;54116;53.518;49.398;2022-12-16T13:48:47;11.60;;;4.28;;
67185;SDS011;54116;53.518;49.398;2022-12-16T13:57:54;17.90;;;4.38;;
67185;SDS011;54116;53.518;49.398;2022-12-16T14:01:00;18.38;;;5.95;;
67185;SDS011;54116;53.518;49.398;2022-12-16T14:03:50;12.10;;;3.50;;
67185;SDS011;54116;53.518;49.398;2022-12-16T14:06:49;10.70;;;3.65;;
67185;SDS011;54116;53.518;49.398;2022-12-16T14:09:35;13.75;;;4.35;;
67185;SDS011;54116;53.518;49.398;2022-12-16T14:15:28;12.93;;;3.40;;
67185;SDS011;54116;53.518;49.398;2022-12-16T14:21:40;12.30;;;3.20;;
67185;SDS011;54116;53.518;49.398;2022-12-16T14:24:29;12.43;;;3.08;;
67185;SDS011;54116;53.518;49.398;2022-12-16T14:27:15;9.40;;;2.55;;
67185;SDS011;54116;53.518;49.398;2022-12-16T14:30:10;12.43;;;2.80;;
67185;SDS011;54116;53.518;49.398;2022-12-16T14:33:15;10.02;;;2.33;;
67185;SDS011;54116;53.518;49.398;2022-12-16T14:35:59;11.40;;;2.85;;
67185;SDS011;54116;53.518;49.398;2022-12-16T14:38:48;12.18;;;3.00;;
67185;SDS011;54116;53.518;49.398;2022-12-16T14:41:33;11.57;;;3.22;;
67185;SDS011;54116;53.518;49.398;2022-12-16T14:44:19;8.88;;;3.03;;
67185;SDS011;54116;53.518;49.398;2022-12-16T14:47:10;12.52;;;3.38;;
67185;SDS011;54116;53.518;49.398;2022-12-16T14:50:00;8.38;;;2.60;;
67185;SDS011;54116;53.518;49.398;2022-12-16T14:52:45;11.75;;;3.03;;
67185;SDS011;54116;53.518;49.398;2022-12-16T14:55:30;7.82;;;2.28;;
67185;SDS011;54116;53.518;49.398;2022-12-16T14:58:20;13.75;;;3.08;;
67185;SDS011;54116;53.518;49.398;2022-12-16T15:03:54;13.88;;;2.65;;
67185;SDS011;54116;53.518;49.398;2022-12-16T15:06:43;7.38;;;2.22;;
67185;SDS011;54116;53.518;49.398;2022-12-16T15:09:36;11.07;;;2.78;;
67185;SDS011;54116;53.518;49.398;2022-12-16T15:12:25;11.32;;;2.72;;
67185;SDS011;54116;53.518;49.398;2022-12-16T15:15:14;7.55;;;2.40;;
67185;SDS011;54116;53.518;49.398;2022-12-16T15:18:02;9.32;;;2.90;;
67185;SDS011;54116;53.518;49.398;2022-12-16T15:20:49;11.88;;;3.90;;
67185;SDS011;54116;53.518;49.398;2022-12-16T15:23:40;14.63;;;3.92;;
67185;SDS011;54116;53.518;49.398;2022-12-16T15:26:29;11.25;;;3.47;;
67185;SDS011;54116;53.518;49.398;2022-12-16T15:41:00;8.35;;;2.33;;
67185;SDS011;54116;53.518;49.398;2022-12-16T15:43:45;8.98;;;2.75;;
67185;SDS011;54116;53.518;49.398;2022-12-16T15:46:30;10.45;;;2.63;;
67185;SDS011;54116;53.518;49.398;2022-12-16T15:52:32;11.38;;;2.85;;
67185;SDS011;54116;53.518;49.398;2022-12-16T15:55:28;7.97;;;2.83;;
67185;SDS011;54116;53.518;49.398;2022-12-16T15:58:24;10.27;;;2.75;;
67185;SDS011;54116;53.518;49.398;2022-12-16T16:01:21;11.50;;;3.22;;
67185;SDS011;54116;53.518;49.398;2022-12-16T16:04:18;11.43;;;2.58;;
67185;SDS011;54116;53.518;49.398;2022-12-16T16:07:26;11.55;;;2.88;;
67185;SDS011;54116;53.518;49.398;2022-12-16T16:10:21;13.45;;;2.75;;
67185;SDS011;54116;53.518;49.398;2022-12-16T16:13:07;11.93;;;2.95;;
67185;SDS011;54116;53.518;49.398;2022-12-16T16:15:53;9.90;;;2.65;;
67185;SDS011;54116;53.518;49.398;2022-12-16T16:18:39;8.73;;;2.90;;
67185;SDS011;54116;53.518;49.398;2022-12-16T16:21:25;8.55;;;2.60;;
67185;SDS011;54116;53.518;49.398;2022-12-16T16:24:20;9.80;;;2.78;;
67185;SDS011;54116;53.518;49.398;2022-12-16T16:27:07;8.20;;;2.80;;
67185;SDS011;54116;53.518;49.398;2022-12-16T16:29:55;8.63;;;2.55;;
67185;SDS011;54116;53.518;49.398;2022-12-16T16:32:41;12.45;;;3.10;;
67185;SDS011;54116;53.518;49.398;2022-12-16T16:35:25;10.45;;;2.78;;
67185;SDS011;54116;53.518;49.398;2022-12-16T16:38:10;8.93;;;2.65;;
67185;SDS011;54116;53.518;49.398;2022-12-16T16:40:55;10.02;;;2.20;;
67185;SDS011;54116;53.518;49.398;2022-12-16T16:43:39;10.95;;;2.95;;
67185;SDS011;54116;53.518;49.398;2022-12-16T16:49:21;10.50;;;3.42;;
67185;SDS011;54116;53.518;49.398;2022-12-16T16:52:09;11.77;;;3.22;;
67185;SDS011;54116;53.518;49.398;2022-12-16T16:55:02;16.85;;;3.30;;
67185;SDS011;54116;53.518;49.398;2022-12-16T16:57:48;10.32;;;2.90;;
67185;SDS011;54116;53.518;49.398;2022-12-16T17:00:33;11.52;;;3.70;;
67185;SDS011;54116;53.518;49.398;2022-12-16T17:03:18;12.65;;;3.38;;
67185;SDS011;54116;53.518;49.398;2022-12-16T17:06:07;10.30;;;3.28;;
67185;SDS011;54116;53.518;49.398;2022-12-16T17:08:52;8.77;;;3.33;;
67185;SDS011;54116;53.518;49.398;2022-12-16T17:11:36;9.27;;;2.88;;
67185;SDS011;54116;53.518;49.398;2022-12-16T17:14:23;10.52;;;2.83;;
67185;SDS011;54116;53.518;49.398;2022-12-16T17:17:08;10.63;;;3.10;;
67185;SDS011;54116;53.518;49.398;2022-12-16T17:19:54;8.93;;;2.63;;
67185;SDS011;54116;53.518;49.398;2022-12-16T17:22:39;7.85;;;2.60;;
67185;SDS011;54116;53.518;49.398;2022-12-16T17:25:24;11.68;;;3.78;;
67185;SDS011;54116;53.518;49.398;2022-12-16T17:28:09;10.43;;;2.75;;
67185;SDS011;54116;53.518;49.398;2022-12-16T17:30:54;12.43;;;2.85;;
67185;SDS011;54116;53.518;49.398;2022-12-16T17:33:39;10.00;;;3.33;;
67185;SDS011;54116;53.518;49.398;2022-12-16T17:36:24;8.68;;;3.25;;
67185;SDS011;54116;53.518;49.398;2022-12-16T17:39:10;10.32;;;3.08;;
67185;SDS011;54116;53.518;49.398;2022-12-16T17:41:56;12.23;;;3.83;;
67185;SDS011;54116;53.518;49.398;2022-12-16T17:44:41;11.73;;;2.72;;
67185;SDS011;54116;53.518;49.398;2022-12-16T17:47:29;8.70;;;2.95;;
67185;SDS011;54116;53.518;49.398;2022-12-16T17:50:13;9.63;;;3.05;;
67185;SDS011;54116;53.518;49.398;2022-12-16T17:52:58;8.63;;;2.60;;
67185;SDS011;54116;53.518;49.398;2022-12-16T17:56:01;10.13;;;3.50;;
67185;SDS011;54116;53.518;49.398;2022-12-16T17:58:46;13.02;;;3.83;;
67185;SDS011;54116;53.518;49.398;2022-12-16T18:01:30;12.95;;;3.75;;
67185;SDS011;54116;53.518;49.398;2022-12-16T18:04:15;10.73;;;3.25;;
67185;SDS011;54116;53.518;49.398;2022-12-16T18:07:00;13.07;;;3.55;;
67185;SDS011;54116;53.518;49.398;2022-12-16T18:09:44;10.27;;;2.97;;
67185;SDS011;54116;53.518;49.398;2022-12-16T18:12:28;13.40;;;3.55;;
67185;SDS011;54116;53.518;49.398;2022-12-16T18:15:14;10.20;;;3.28;;
67185;SDS011;54116;53.518;49.398;2022-12-16T18:17:58;9.60;;;2.85;;
67185;SDS011;54116;53.518;49.398;2022-12-16T18:20:43;10.70;;;3.42;;
67185;SDS011;54116;53.518;49.398;2022-12-16T18:23:30;14.27;;;3.08;;